sensor_id;sensor_type;location;lat;lon;timestamp;pressure;altitude;pressure_sealevel;temperature;humidity
24620;BME280;12763;55.802;37.404;2023-05-10T00:02:07;100539.31;;;11.34;40.96
24620;BME280;12763;55.802;37.404;2023-05-10T00:04:33;100542.72;;;11.36;41.30
24620;BME280;12763;55.802;37.404;2023-05-10T00:07:00;100537.19;;;11.36;41.22
24620;BME280;12763;55.802;37.404;2023-05-10T00:09:26;100533.53;;;11.29;41.03
24620;BME280;12763;55.802;37.404;2023-05-10T00:11:52;100536.72;;;11.33;41.26
24620;BME280;12763;55.802;37.404;2023-05-10T00:14:18;100529.13;;;11.41;40.87
24620;BME280;12763;55.802;37.404;2023-05-10T00:16:45;100530.88;;;11.42;40.55
24620;BME280;12763;55.802;37.404;2023-05-10T00:19:11;100534.25;;;11.38;40.84
24620;BME280;12763;55.802;37.404;2023-05-10T00:21:37;100528.25;;;11.34;40.69
24620;BME280;12763;55.802;37.404;2023-05-10T00:24:04;100526.88;;;11.24;40.57
24620;BME280;12763;55.802;37.404;2023-05-10T00:26:30;100532.66;;;11.29;40.27
24620;BME280;12763;55.802;37.404;2023-05-10T00:28:57;100526.88;;;11.24;40.04
24620;BME280;12763;55.802;37.404;2023-05-10T00:31:24;100526.34;;;11.13;40.41
24620;BME280;12763;55.802;37.404;2023-05-10T00:33:50;100533.59;;;11.14;40.18
24620;BME280;12763;55.802;37.404;2023-05-10T00:36:19;100532.41;;;11.24;40.17
24620;BME280;12763;55.802;37.404;2023-05-10T00:38:46;100530.75;;;11.29;39.60
24620;BME280;12763;55.802;37.404;2023-05-10T00:41:12;100539.31;;;11.34;39.65
24620;BME280;12763;55.802;37.404;2023-05-10T00:43:43;100526.78;;;11.38;39.47
24620;BME280;12763;55.802;37.404;2023-05-10T00:46:13;100525.63;;;11.26;40.04
24620;BME280;12763;55.802;37.404;2023-05-10T00:48:44;100539.34;;;11.41;39.55
24620;BME280;12763;55.802;37.404;2023-05-10T00:51:11;100533.66;;;11.21;39.77
24620;BME280;12763;55.802;37.404;2023-05-10T00:53:38;100544.31;;;11.03;39.79
24620;BME280;12763;55.802;37.404;2023-05-10T00:56:05;100539.31;;;10.92;39.98
24620;BME280;12763;55.802;37.404;2023-05-10T00:58:35;100538.00;;;11.09;39.76
24620;BME280;12763;55.802;37.404;2023-05-10T01:01:01;100535.38;;;11.01;40.31
24620;BME280;12763;55.802;37.404;2023-05-10T01:03:28;100535.25;;;11.09;40.08
24620;BME280;12763;55.802;37.404;2023-05-10T01:05:58;100531.44;;;11.10;39.93
24620;BME280;12763;55.802;37.404;2023-05-10T01:08:25;100527.59;;;11.11;40.14
24620;BME280;12763;55.802;37.404;2023-05-10T01:10:52;100532.63;;;11.01;40.50
24620;BME280;12763;55.802;37.404;2023-05-10T01:13:30;100519.56;;;11.16;40.21
24620;BME280;12763;55.802;37.404;2023-05-10T01:15:59;100528.25;;;11.13;40.52
24620;BME280;12763;55.802;37.404;2023-05-10T01:18:36;100520.97;;;11.05;40.08
24620;BME280;12763;55.802;37.404;2023-05-10T01:32:47;100530.91;;;11.00;41.32
24620;BME280;12763;55.802;37.404;2023-05-10T01:35:40;100528.00;;;11.08;40.69
24620;BME280;12763;55.802;37.404;2023-05-10T01:38:26;100533.41;;;10.95;41.23
24620;BME280;12763;55.802;37.404;2023-05-10T01:41:51;100532.53;;;10.94;40.66
24620;BME280;12763;55.802;37.404;2023-05-10T01:44:45;100528.91;;;10.94;41.27
24620;BME280;12763;55.802;37.404;2023-05-10T01:47:46;100528.66;;;10.89;41.73
24620;BME280;12763;55.802;37.404;2023-05-10T01:50:19;100524.47;;;10.93;41.09
24620;BME280;12763;55.802;37.404;2023-05-10T01:53:03;100527.22;;;10.93;41.50
24620;BME280;12763;55.802;37.404;2023-05-10T01:55:44;100519.72;;;10.87;41.22
24620;BME280;12763;55.802;37.404;2023-05-10T01:58:21;100524.50;;;10.99;41.26
24620;BME280;12763;55.802;37.404;2023-05-10T02:00:50;100524.72;;;10.98;41.50
24620;BME280;12763;55.802;37.404;2023-05-10T02:03:20;100518.16;;;10.99;41.73
24620;BME280;12763;55.802;37.404;2023-05-10T02:05:49;100519.38;;;10.96;41.87
24620;BME280;12763;55.802;37.404;2023-05-10T02:08:17;100524.72;;;10.98;41.79
24620;BME280;12763;55.802;37.404;2023-05-10T02:10:49;100525.75;;;10.97;41.83
24620;BME280;12763;55.802;37.404;2023-05-10T02:13:17;100521.44;;;10.88;42.30
24620;BME280;12763;55.802;37.404;2023-05-10T02:15:47;100519.34;;;10.90;42.31
24620;BME280;12763;55.802;37.404;2023-05-10T02:18:17;100519.72;;;10.87;42.19
24620;BME280;12763;55.802;37.404;2023-05-10T02:20:46;100520.38;;;10.89;42.11
24620;BME280;12763;55.802;37.404;2023-05-10T02:23:18;100513.34;;;10.86;41.79
24620;BME280;12763;55.802;37.404;2023-05-10T02:25:48;100510.66;;;10.93;41.81
24620;BME280;12763;55.802;37.404;2023-05-10T02:28:16;100509.59;;;10.94;41.85
24620;BME280;12763;55.802;37.404;2023-05-10T02:30:43;100504.88;;;10.88;42.29
24620;BME280;12763;55.802;37.404;2023-05-10T02:33:14;100507.34;;;10.83;42.43
24620;BME280;12763;55.802;37.404;2023-05-10T02:35:44;100506.53;;;10.82;42.29
24620;BME280;12763;55.802;37.404;2023-05-10T02:38:11;100504.34;;;10.78;42.50
24620;BME280;12763;55.802;37.404;2023-05-10T02:40:40;100511.44;;;10.87;41.98
24620;BME280;12763;55.802;37.404;2023-05-10T02:43:12;100507.47;;;10.75;42.31
24620;BME280;12763;55.802;37.404;2023-05-10T02:45:40;100498.41;;;10.59;42.54
24620;BME280;12763;55.802;37.404;2023-05-10T02:48:09;100505.91;;;10.66;42.30
24620;BME280;12763;55.802;37.404;2023-05-10T02:50:41;100507.22;;;10.70;42.16
24620;BME280;12763;55.802;37.404;2023-05-10T02:53:20;100508.59;;;10.80;42.32
24620;BME280;12763;55.802;37.404;2023-05-10T02:55:51;100501.69;;;10.70;42.44
24620;BME280;12763;55.802;37.404;2023-05-10T02:58:21;100506.22;;;10.77;42.22
24620;BME280;12763;55.802;37.404;2023-05-10T03:00:48;100503.94;;;10.81;42.29
24620;BME280;12763;55.802;37.404;2023-05-10T03:03:14;100505.41;;;10.77;42.10
24620;BME280;12763;55.802;37.404;2023-05-10T03:05:41;100508.16;;;10.77;42.26
24620;BME280;12763;55.802;37.404;2023-05-10T03:08:14;100511.31;;;10.74;41.93
24620;BME280;12763;55.802;37.404;2023-05-10T03:10:55;100506.44;;;10.76;42.25
24620;BME280;12763;55.802;37.404;2023-05-10T03:13:36;100503.56;;;10.84;41.84
24620;BME280;12763;55.802;37.404;2023-05-10T03:16:34;100501.97;;;10.75;42.76
24620;BME280;12763;55.802;37.404;2023-05-10T03:22:24;100502.56;;;10.70;42.22
24620;BME280;12763;55.802;37.404;2023-05-10T03:24:58;100506.13;;;10.85;42.11
24620;BME280;12763;55.802;37.404;2023-05-10T03:27:44;100506.13;;;10.85;42.25
24620;BME280;12763;55.802;37.404;2023-05-10T03:30:12;100498.81;;;10.99;41.97
24620;BME280;12763;55.802;37.404;2023-05-10T03:32:40;100502.50;;;11.06;42.24
24620;BME280;12763;55.802;37.404;2023-05-10T03:35:10;100498.00;;;11.05;42.23
24620;BME280;12763;55.802;37.404;2023-05-10T03:37:37;100493.19;;;11.13;42.38
24620;BME280;12763;55.802;37.404;2023-05-10T03:40:05;100499.47;;;11.01;42.61
24620;BME280;12763;55.802;37.404;2023-05-10T03:42:33;100503.94;;;11.02;42.35
24620;BME280;12763;55.802;37.404;2023-05-10T03:45:03;100498.69;;;10.86;42.59
24620;BME280;12763;55.802;37.404;2023-05-10T03:47:31;100502.69;;;11.04;42.42
24620;BME280;12763;55.802;37.404;2023-05-10T03:49:59;100491.03;;;11.09;42.65
24620;BME280;12763;55.802;37.404;2023-05-10T03:52:25;100490.66;;;11.12;42.35
24620;BME280;12763;55.802;37.404;2023-05-10T03:54:51;100490.66;;;11.12;42.73
24620;BME280;12763;55.802;37.404;2023-05-10T03:57:18;100483.50;;;11.24;42.80
24620;BME280;12763;55.802;37.404;2023-05-10T03:59:47;100492.97;;;11.36;42.35
24620;BME280;12763;55.802;37.404;2023-05-10T04:02:13;100488.38;;;11.43;42.70
24620;BME280;12763;55.802;37.404;2023-05-10T04:04:40;100492.66;;;11.52;42.39
24620;BME280;12763;55.802;37.404;2023-05-10T04:07:07;100490.53;;;11.54;42.40
24620;BME280;12763;55.802;37.404;2023-05-10T04:09:33;100503.00;;;11.44;43.14
24620;BME280;12763;55.802;37.404;2023-05-10T04:12:02;100481.69;;;11.65;42.83
24620;BME280;12763;55.802;37.404;2023-05-10T04:14:28;100490.91;;;11.72;42.56
24620;BME280;12763;55.802;37.404;2023-05-10T04:16:57;100485.63;;;11.77;42.71
24620;BME280;12763;55.802;37.404;2023-05-10T04:19:23;100481.41;;;11.82;42.63
24620;BME280;12763;55.802;37.404;2023-05-10T04:21:50;100484.00;;;11.90;42.63
24620;BME280;12763;55.802;37.404;2023-05-10T04:24:16;100481.25;;;11.90;42.74
24620;BME280;12763;55.802;37.404;2023-05-10T04:26:42;100481.81;;;11.78;42.67
24620;BME280;12763;55.802;37.404;2023-05-10T04:29:09;100482.91;;;11.84;43.21
24620;BME280;12763;55.802;37.404;2023-05-10T04:31:35;100480.16;;;11.91;43.05
24620;BME280;12763;55.802;37.404;2023-05-10T04:34:02;100478.13;;;12.06;42.95
24620;BME280;12763;55.802;37.404;2023-05-10T04:36:28;100478.19;;;12.19;42.94
24620;BME280;12763;55.802;37.404;2023-05-10T04:38:55;100477.81;;;12.28;42.65
24620;BME280;12763;55.802;37.404;2023-05-10T04:41:24;100481.25;;;12.44;42.63
24620;BME280;12763;55.802;37.404;2023-05-10T04:43:51;100470.59;;;12.34;42.20
24620;BME280;12763;55.802;37.404;2023-05-10T04:46:18;100470.66;;;12.54;42.05
24620;BME280;12763;55.802;37.404;2023-05-10T04:48:48;100471.06;;;12.57;42.43
24620;BME280;12763;55.802;37.404;2023-05-10T04:51:14;100465.97;;;12.74;41.83
24620;BME280;12763;55.802;37.404;2023-05-10T04:53:44;100470.06;;;12.91;41.77
24620;BME280;12763;55.802;37.404;2023-05-10T04:56:11;100468.16;;;13.05;41.64
24620;BME280;12763;55.802;37.404;2023-05-10T04:58:39;100473.31;;;13.27;41.29
24620;BME280;12763;55.802;37.404;2023-05-10T05:01:07;100469.88;;;13.32;41.48
24620;BME280;12763;55.802;37.404;2023-05-10T05:03:34;100467.13;;;13.19;41.78
24620;BME280;12763;55.802;37.404;2023-05-10T05:06:01;100469.03;;;13.31;41.60
24620;BME280;12763;55.802;37.404;2023-05-10T05:08:28;100465.00;;;13.47;41.24
24620;BME280;12763;55.802;37.404;2023-05-10T05:10:54;100458.59;;;13.53;41.42
24620;BME280;12763;55.802;37.404;2023-05-10T05:13:22;100460.28;;;13.54;41.68
24620;BME280;12763;55.802;37.404;2023-05-10T05:15:51;100463.03;;;13.54;41.91
24620;BME280;12763;55.802;37.404;2023-05-10T05:18:20;100462.56;;;13.83;41.01
24620;BME280;12763;55.802;37.404;2023-05-10T05:20:50;100459.13;;;13.81;41.12
24620;BME280;12763;55.802;37.404;2023-05-10T05:23:17;100463.31;;;14.17;40.65
24620;BME280;12763;55.802;37.404;2023-05-10T05:25:44;100449.38;;;14.30;40.73
24620;BME280;12763;55.802;37.404;2023-05-10T05:28:14;100446.09;;;14.46;39.99
24620;BME280;12763;55.802;37.404;2023-05-10T05:30:42;100447.81;;;14.47;40.10
24620;BME280;12763;55.802;37.404;2023-05-10T05:33:09;100447.34;;;14.50;39.95
24620;BME280;12763;55.802;37.404;2023-05-10T05:35:37;100438.81;;;14.51;39.82
24620;BME280;12763;55.802;37.404;2023-05-10T05:38:03;100445.47;;;14.75;39.36
24620;BME280;12763;55.802;37.404;2023-05-10T05:40:30;100448.09;;;14.70;39.39
24620;BME280;12763;55.802;37.404;2023-05-10T05:42:56;100437.16;;;14.75;39.12
24620;BME280;12763;55.802;37.404;2023-05-10T05:45:23;100437.16;;;14.75;39.09
24620;BME280;12763;55.802;37.404;2023-05-10T05:47:49;100436.84;;;14.90;38.90
24620;BME280;12763;55.802;37.404;2023-05-10T05:50:15;100442.25;;;15.09;38.82
24620;BME280;12763;55.802;37.404;2023-05-10T05:52:43;100434.34;;;15.31;38.26
24620;BME280;12763;55.802;37.404;2023-05-10T05:55:09;100430.41;;;15.39;38.07
24620;BME280;12763;55.802;37.404;2023-05-10T05:57:38;100425.25;;;15.49;38.21
24620;BME280;12763;55.802;37.404;2023-05-10T06:00:08;100431.00;;;15.47;38.34
24620;BME280;12763;55.802;37.404;2023-05-10T06:02:41;100434.31;;;15.38;38.01
24620;BME280;12763;55.802;37.404;2023-05-10T06:05:07;100421.50;;;15.55;37.68
24620;BME280;12763;55.802;37.404;2023-05-10T06:07:34;100435.91;;;15.70;37.68
24620;BME280;12763;55.802;37.404;2023-05-10T06:10:01;100434.00;;;15.70;37.41
24620;BME280;12763;55.802;37.404;2023-05-10T06:12:45;100437.28;;;15.61;37.18
24620;BME280;12763;55.802;37.404;2023-05-10T06:15:12;100432.38;;;15.63;36.71
24620;BME280;12763;55.802;37.404;2023-05-10T06:17:41;100431.75;;;15.79;36.73
24620;BME280;12763;55.802;37.404;2023-05-10T06:20:11;100424.44;;;15.84;36.56
24620;BME280;12763;55.802;37.404;2023-05-10T06:22:38;100425.63;;;15.88;36.45
24620;BME280;12763;55.802;37.404;2023-05-10T06:25:04;100429.13;;;15.84;36.39
24620;BME280;12763;55.802;37.404;2023-05-10T06:27:31;100412.50;;;16.14;36.21
24620;BME280;12763;55.802;37.404;2023-05-10T06:29:57;100417.53;;;16.35;36.07
24620;BME280;12763;55.802;37.404;2023-05-10T06:32:23;100419.41;;;16.41;35.49
24620;BME280;12763;55.802;37.404;2023-05-10T06:34:50;100421.00;;;16.67;35.35
24620;BME280;12763;55.802;37.404;2023-05-10T06:37:16;100416.16;;;16.74;35.13
24620;BME280;12763;55.802;37.404;2023-05-10T06:39:43;100409.59;;;16.38;35.67
24620;BME280;12763;55.802;37.404;2023-05-10T06:42:12;100409.25;;;16.65;35.10
24620;BME280;12763;55.802;37.404;2023-05-10T06:44:59;100410.78;;;16.61;35.45
24620;BME280;12763;55.802;37.404;2023-05-10T06:47:25;100407.22;;;16.83;34.63
24620;BME280;12763;55.802;37.404;2023-05-10T06:50:12;100417.91;;;16.86;34.51
24620;BME280;12763;55.802;37.404;2023-05-10T06:52:54;100406.00;;;16.79;34.47
24620;BME280;12763;55.802;37.404;2023-05-10T06:55:44;100404.66;;;16.70;34.77
24620;BME280;12763;55.802;37.404;2023-05-10T06:58:10;100406.94;;;17.15;34.15
24620;BME280;12763;55.802;37.404;2023-05-10T07:00:37;100410.72;;;17.20;34.11
24620;BME280;12763;55.802;37.404;2023-05-10T07:03:06;100403.91;;;17.16;34.17
24620;BME280;12763;55.802;37.404;2023-05-10T07:05:32;100405.59;;;17.40;33.61
24620;BME280;12763;55.802;37.404;2023-05-10T07:07:59;100409.13;;;17.36;33.46
24620;BME280;12763;55.802;37.404;2023-05-10T07:10:25;100401.28;;;17.56;33.12
24620;BME280;12763;55.802;37.404;2023-05-10T07:12:52;100406.81;;;17.79;32.66
24620;BME280;12763;55.802;37.404;2023-05-10T07:15:21;100399.91;;;17.35;33.00
24620;BME280;12763;55.802;37.404;2023-05-10T07:17:48;100401.25;;;17.33;32.82
24620;BME280;12763;55.802;37.404;2023-05-10T07:20:14;100406.09;;;17.37;32.76
24620;BME280;12763;55.802;37.404;2023-05-10T07:22:41;100398.84;;;17.48;32.55
24620;BME280;12763;55.802;37.404;2023-05-10T07:25:07;100395.31;;;17.52;32.33
24620;BME280;12763;55.802;37.404;2023-05-10T07:27:33;100400.78;;;17.47;32.05
24620;BME280;12763;55.802;37.404;2023-05-10T07:30:00;100389.22;;;17.79;31.51
24620;BME280;12763;55.802;37.404;2023-05-10T07:32:29;100394.59;;;17.69;31.64
24620;BME280;12763;55.802;37.404;2023-05-10T07:34:55;100389.06;;;18.08;31.24
24620;BME280;12763;55.802;37.404;2023-05-10T07:37:21;100384.34;;;18.26;30.96
24620;BME280;12763;55.802;37.404;2023-05-10T07:39:48;100382.13;;;18.11;30.87
24620;BME280;12763;55.802;37.404;2023-05-10T07:42:14;100385.25;;;18.14;30.99
24620;BME280;12763;55.802;37.404;2023-05-10T07:44:40;100379.06;;;18.52;30.70
24620;BME280;12763;55.802;37.404;2023-05-10T07:47:09;100378.94;;;18.47;30.52
24620;BME280;12763;55.802;37.404;2023-05-10T07:49:35;100383.34;;;18.43;30.71
24620;BME280;12763;55.802;37.404;2023-05-10T07:52:03;100381.63;;;18.42;30.28
24620;BME280;12763;55.802;37.404;2023-05-10T07:54:30;100382.09;;;18.23;30.70
24620;BME280;12763;55.802;37.404;2023-05-10T07:56:56;100378.09;;;18.18;30.86
24620;BME280;12763;55.802;37.404;2023-05-10T07:59:24;100380.84;;;18.30;30.51
24620;BME280;12763;55.802;37.404;2023-05-10T08:01:51;100382.38;;;18.49;30.28
24620;BME280;12763;55.802;37.404;2023-05-10T08:04:17;100379.56;;;18.77;29.61
24620;BME280;12763;55.802;37.404;2023-05-10T08:06:44;100379.34;;;18.67;29.66
24620;BME280;12763;55.802;37.404;2023-05-10T08:09:10;100375.59;;;19.07;29.28
24620;BME280;12763;55.802;37.404;2023-05-10T08:11:37;100369.75;;;18.92;29.47
24620;BME280;12763;55.802;37.404;2023-05-10T08:14:04;100364.22;;;18.80;29.49
24620;BME280;12763;55.802;37.404;2023-05-10T08:16:31;100360.56;;;18.80;29.46
24620;BME280;12763;55.802;37.404;2023-05-10T08:19:04;100349.81;;;18.88;28.61
24620;BME280;12763;55.802;37.404;2023-05-10T08:21:31;100355.56;;;18.82;29.00
24620;BME280;12763;55.802;37.404;2023-05-10T08:23:57;100355.50;;;18.48;28.86
24620;BME280;12763;55.802;37.404;2023-05-10T08:26:23;100348.09;;;18.70;28.37
24620;BME280;12763;55.802;37.404;2023-05-10T08:28:49;100345.41;;;18.92;28.05
24620;BME280;12763;55.802;37.404;2023-05-10T08:31:16;100348.38;;;19.02;28.03
24620;BME280;12763;55.802;37.404;2023-05-10T08:33:42;100353.28;;;19.12;28.04
24620;BME280;12763;55.802;37.404;2023-05-10T08:36:08;100345.09;;;19.05;28.24
24620;BME280;12763;55.802;37.404;2023-05-10T08:38:34;100340.81;;;19.03;27.99
24620;BME280;12763;55.802;37.404;2023-05-10T08:41:02;100343.72;;;19.24;27.81
24620;BME280;12763;55.802;37.404;2023-05-10T08:43:28;100329.75;;;19.08;27.73
24620;BME280;12763;55.802;37.404;2023-05-10T08:45:56;100335.22;;;19.03;27.75
24620;BME280;12763;55.802;37.404;2023-05-10T08:48:23;100331.41;;;19.09;27.89
24620;BME280;12763;55.802;37.404;2023-05-10T08:50:53;100331.25;;;18.99;27.84
24620;BME280;12763;55.802;37.404;2023-05-10T08:53:24;100325.81;;;19.25;27.72
24620;BME280;12763;55.802;37.404;2023-05-10T08:55:58;100323.06;;;19.30;27.31
24620;BME280;12763;55.802;37.404;2023-05-10T08:58:25;100318.41;;;19.36;27.59
24620;BME280;12763;55.802;37.404;2023-05-10T09:00:51;100324.47;;;18.95;27.58
24620;BME280;12763;55.802;37.404;2023-05-10T09:03:18;100325.66;;;19.15;27.62
24620;BME280;12763;55.802;37.404;2023-05-10T09:05:45;100308.78;;;19.27;27.57
24620;BME280;12763;55.802;37.404;2023-05-10T09:08:17;100310.09;;;19.58;27.31
24620;BME280;12763;55.802;37.404;2023-05-10T09:10:46;100301.44;;;19.59;27.22
24620;BME280;12763;55.802;37.404;2023-05-10T09:13:15;100304.03;;;19.87;27.16
24620;BME280;12763;55.802;37.404;2023-05-10T09:15:45;100297.16;;;20.22;27.64
24620;BME280;12763;55.802;37.404;2023-05-10T09:18:12;100303.66;;;20.49;27.25
24620;BME280;12763;55.802;37.404;2023-05-10T09:20:38;100292.50;;;20.54;26.79
24620;BME280;12763;55.802;37.404;2023-05-10T09:23:04;100288.41;;;20.40;26.78
24620;BME280;12763;55.802;37.404;2023-05-10T09:25:31;100283.56;;;20.09;26.94
24620;BME280;12763;55.802;37.404;2023-05-10T09:28:03;100285.91;;;19.95;27.08
24620;BME280;12763;55.802;37.404;2023-05-10T09:30:32;100285.69;;;19.97;27.15
24620;BME280;12763;55.802;37.404;2023-05-10T09:32:59;100286.00;;;19.57;27.24
24620;BME280;12763;55.802;37.404;2023-05-10T09:35:28;100282.91;;;20.50;26.58
24620;BME280;12763;55.802;37.404;2023-05-10T09:37:56;100280.28;;;20.70;26.45
24620;BME280;12763;55.802;37.404;2023-05-10T09:40:32;100288.72;;;20.70;26.11
24620;BME280;12763;55.802;37.404;2023-05-10T09:43:03;100281.00;;;21.24;26.02
24620;BME280;12763;55.802;37.404;2023-05-10T09:45:35;100281.38;;;21.38;25.91
24620;BME280;12763;55.802;37.404;2023-05-10T09:48:02;100283.13;;;21.49;25.56
24620;BME280;12763;55.802;37.404;2023-05-10T09:50:32;100275.25;;;21.04;25.68
24620;BME280;12763;55.802;37.404;2023-05-10T09:53:03;100275.25;;;20.72;26.01
24620;BME280;12763;55.802;37.404;2023-05-10T09:58:04;100268.47;;;20.36;26.38
24620;BME280;12763;55.802;37.404;2023-05-10T10:00:43;100268.44;;;20.10;26.52
24620;BME280;12763;55.802;37.404;2023-05-10T10:03:15;100265.88;;;19.81;26.59
24620;BME280;12763;55.802;37.404;2023-05-10T10:05:43;100267.06;;;20.34;26.19
24620;BME280;12763;55.802;37.404;2023-05-10T10:08:10;100266.28;;;20.70;25.92
24620;BME280;12763;55.802;37.404;2023-05-10T10:10:36;100263.09;;;20.62;25.77
24620;BME280;12763;55.802;37.404;2023-05-10T10:13:02;100253.06;;;20.12;26.55
24620;BME280;12763;55.802;37.404;2023-05-10T10:15:28;100252.06;;;20.23;26.58
24620;BME280;12763;55.802;37.404;2023-05-10T10:17:55;100254.50;;;20.41;26.81
24620;BME280;12763;55.802;37.404;2023-05-10T10:20:22;100239.28;;;20.64;26.54
24620;BME280;12763;55.802;37.404;2023-05-10T10:22:49;100248.78;;;20.95;26.24
24620;BME280;12763;55.802;37.404;2023-05-10T10:25:16;100245.19;;;21.04;26.06
24620;BME280;12763;55.802;37.404;2023-05-10T10:30:33;100245.16;;;20.99;25.68
24620;BME280;12763;55.802;37.404;2023-05-10T10:35:44;100244.06;;;21.37;25.81
24620;BME280;12763;55.802;37.404;2023-05-10T10:38:12;100238.06;;;21.76;25.15
24620;BME280;12763;55.802;37.404;2023-05-10T10:40:38;100238.44;;;21.94;25.06
24620;BME280;12763;55.802;37.404;2023-05-10T10:43:24;100239.00;;;21.39;24.52
24620;BME280;12763;55.802;37.404;2023-05-10T10:46:13;100233.44;;;21.49;24.64
24620;BME280;12763;55.802;37.404;2023-05-10T10:49:09;100225.44;;;21.83;24.32
24620;BME280;12763;55.802;37.404;2023-05-10T10:51:39;100229.75;;;22.06;24.67
24620;BME280;12763;55.802;37.404;2023-05-10T10:54:09;100230.00;;;21.94;24.43
24620;BME280;12763;55.802;37.404;2023-05-10T10:56:39;100226.84;;;21.86;24.71
24620;BME280;12763;55.802;37.404;2023-05-10T10:59:05;100223.53;;;21.94;24.54
24620;BME280;12763;55.802;37.404;2023-05-10T11:01:37;100218.94;;;21.73;24.72
24620;BME280;12763;55.802;37.404;2023-05-10T11:06:36;100216.44;;;21.86;24.72
24620;BME280;12763;55.802;37.404;2023-05-10T11:09:12;100211.78;;;22.17;24.29
24620;BME280;12763;55.802;37.404;2023-05-10T11:11:54;100202.81;;;22.40;24.23
24620;BME280;12763;55.802;37.404;2023-05-10T11:14:34;100209.09;;;21.65;24.74
24620;BME280;12763;55.802;37.404;2023-05-10T11:17:01;100206.56;;;21.74;24.91
24620;BME280;12763;55.802;37.404;2023-05-10T11:19:28;100209.66;;;21.72;24.90
24620;BME280;12763;55.802;37.404;2023-05-10T11:24:29;100197.72;;;22.37;23.65
24620;BME280;12763;55.802;37.404;2023-05-10T11:27:01;100200.81;;;22.20;24.25
24620;BME280;12763;55.802;37.404;2023-05-10T11:29:28;100207.47;;;21.84;24.81
24620;BME280;12763;55.802;37.404;2023-05-10T11:31:57;100197.13;;;21.33;25.12
24620;BME280;12763;55.802;37.404;2023-05-10T11:34:28;100195.59;;;21.10;25.09
24620;BME280;12763;55.802;37.404;2023-05-10T11:36:56;100204.00;;;20.68;25.66
24620;BME280;12763;55.802;37.404;2023-05-10T11:39:30;100194.28;;;20.81;25.16
24620;BME280;12763;55.802;37.404;2023-05-10T11:41:58;100191.16;;;21.14;25.03
24620;BME280;12763;55.802;37.404;2023-05-10T11:44:31;100182.53;;;21.31;24.86
24620;BME280;12763;55.802;37.404;2023-05-10T11:47:01;100179.22;;;21.44;25.04
24620;BME280;12763;55.802;37.404;2023-05-10T11:49:29;100179.84;;;21.61;25.21
24620;BME280;12763;55.802;37.404;2023-05-10T11:52:08;100181.28;;;21.68;24.64
24620;BME280;12763;55.802;37.404;2023-05-10T11:54:34;100179.91;;;21.76;24.57
24620;BME280;12763;55.802;37.404;2023-05-10T11:57:01;100171.22;;;21.83;24.67
24620;BME280;12763;55.802;37.404;2023-05-10T11:59:27;100169.63;;;22.12;24.47
24620;BME280;12763;55.802;37.404;2023-05-10T12:01:53;100179.47;;;22.14;24.48
24620;BME280;12763;55.802;37.404;2023-05-10T12:04:20;100169.78;;;21.70;24.58
24620;BME280;12763;55.802;37.404;2023-05-10T12:06:47;100168.19;;;22.04;24.67
24620;BME280;12763;55.802;37.404;2023-05-10T12:09:14;100165.66;;;22.03;24.50
24620;BME280;12763;55.802;37.404;2023-05-10T12:11:40;100172.09;;;21.93;24.59
24620;BME280;12763;55.802;37.404;2023-05-10T12:14:08;100164.81;;;21.97;24.62
24620;BME280;12763;55.802;37.404;2023-05-10T12:16:35;100164.25;;;22.10;24.43
24620;BME280;12763;55.802;37.404;2023-05-10T12:19:01;100159.75;;;22.09;24.57
24620;BME280;12763;55.802;37.404;2023-05-10T12:21:29;100159.78;;;22.40;24.16
24620;BME280;12763;55.802;37.404;2023-05-10T12:24:02;100148.25;;;22.46;24.08
24620;BME280;12763;55.802;37.404;2023-05-10T12:26:29;100155.84;;;22.00;24.09
24620;BME280;12763;55.802;37.404;2023-05-10T12:29:12;100141.78;;;21.95;24.26
24620;BME280;12763;55.802;37.404;2023-05-10T12:31:59;100150.13;;;21.70;24.93
24620;BME280;12763;55.802;37.404;2023-05-10T12:34:33;100143.94;;;21.73;25.30
24620;BME280;12763;55.802;37.404;2023-05-10T12:37:02;100141.09;;;21.68;25.27
24620;BME280;12763;55.802;37.404;2023-05-10T12:39:41;100139.06;;;21.43;25.77
24620;BME280;12763;55.802;37.404;2023-05-10T12:42:09;100143.50;;;21.29;25.83
24620;BME280;12763;55.802;37.404;2023-05-10T12:44:35;100139.25;;;21.22;25.52
24620;BME280;12763;55.802;37.404;2023-05-10T12:47:02;100135.06;;;21.24;25.47
24620;BME280;12763;55.802;37.404;2023-05-10T12:49:28;100135.88;;;21.15;25.59
24620;BME280;12763;55.802;37.404;2023-05-10T12:51:54;100144.91;;;21.27;25.55
24620;BME280;12763;55.802;37.404;2023-05-10T12:54:20;100144.78;;;21.06;25.57
24620;BME280;12763;55.802;37.404;2023-05-10T12:56:46;100137.44;;;21.00;25.65
24620;BME280;12763;55.802;37.404;2023-05-10T12:59:13;100144.88;;;20.80;25.83
24620;BME280;12763;55.802;37.404;2023-05-10T13:01:39;100136.88;;;20.52;26.18
24620;BME280;12763;55.802;37.404;2023-05-10T13:04:05;100144.34;;;20.83;26.26
24620;BME280;12763;55.802;37.404;2023-05-10T13:06:31;100130.06;;;20.84;26.40
24620;BME280;12763;55.802;37.404;2023-05-10T13:08:57;100123.34;;;20.85;26.67
24620;BME280;12763;55.802;37.404;2023-05-10T13:11:23;100127.44;;;21.10;26.07
24620;BME280;12763;55.802;37.404;2023-05-10T13:13:50;100127.25;;;21.26;25.98
24620;BME280;12763;55.802;37.404;2023-05-10T13:16:16;100134.25;;;21.29;25.93
24620;BME280;12763;55.802;37.404;2023-05-10T13:18:43;100127.88;;;20.96;26.24
24620;BME280;12763;55.802;37.404;2023-05-10T13:21:12;100122.00;;;20.19;26.82